sensor_id;sensor_type;location;lat;lon;timestamp;P1;durP1;ratioP1;P2;durP2;ratioP2
36133;SDS011;40492;43.524;-1.510;2022-07-10T00:00:27;13.40;;;5.57;;
36133;SDS011;40492;43.524;-1.510;2022-07-10T00:02:55;15.20;;;5.43;;
36133;SDS011;40492;43.524;-1.510;2022-07-10T00:05:23;22.63;;;6.65;;
36133;SDS011;40492;43.524;-1.510;2022-07-10T00:07:49;16.30;;;6.05;;
36133;SDS011;40492;43.524;-1.510;2022-07-10T00:10:17;10.73;;;5.22;;
36133;SDS011;40492;43.524;-1.510;2022-07-10T00:12:44;23.40;;;5.75;;
36133;SDS011;40492;43.524;-1.510;2022-07-10T00:15:11;19.58;;;6.03;;
36133;SDS011;40492;43.524;-1.510;2022-07-10T00:17:37;14.40;;;5.70;;
36133;SDS011;40492;43.524;-1.510;2022-07-10T00:20:04;14.40;;;5.80;;
36133;SDS011;40492;43.524;-1.510;2022-07-10T00:22:35;13.05;;;5.68;;
36133;SDS011;40492;43.524;-1.510;2022-07-10T00:25:05;15.75;;;6.07;;
36133;SDS011;40492;43.524;-1.510;2022-07-10T00:27:33;16.27;;;6.00;;
36133;SDS011;40492;43.524;-1.510;2022-07-10T00:29:59;17.52;;;5.93;;
36133;SDS011;40492;43.524;-1.510;2022-07-10T00:32:25;16.38;;;6.60;;
36133;SDS011;40492;43.524;-1.510;2022-07-10T00:34:51;19.00;;;5.95;;
36133;SDS011;40492;43.524;-1.510;2022-07-10T00:37:17;17.92;;;6.30;;
36133;SDS011;40492;43.524;-1.510;2022-07-10T00:39:46;21.23;;;7.53;;
36133;SDS011;40492;43.524;-1.510;2022-07-10T00:42:13;17.63;;;7.07;;
36133;SDS011;40492;43.524;-1.510;2022-07-10T00:44:43;21.45;;;7.38;;
36133;SDS011;40492;43.524;-1.510;2022-07-10T00:47:09;17.95;;;6.97;;
36133;SDS011;40492;43.524;-1.510;2022-07-10T00:49:36;26.92;;;8.27;;
36133;SDS011;40492;43.524;-1.510;2022-07-10T00:52:08;21.55;;;8.57;;
36133;SDS011;40492;43.524;-1.510;2022-07-10T00:54:37;19.92;;;7.22;;
36133;SDS011;40492;43.524;-1.510;2022-07-10T00:57:05;14.02;;;7.30;;
36133;SDS011;40492;43.524;-1.510;2022-07-10T00:59:33;11.85;;;6.72;;
36133;SDS011;40492;43.524;-1.510;2022-07-10T01:02:00;17.27;;;7.68;;
36133;SDS011;40492;43.524;-1.510;2022-07-10T01:04:30;15.15;;;7.07;;
36133;SDS011;40492;43.524;-1.510;2022-07-10T01:06:58;17.85;;;8.10;;
36133;SDS011;40492;43.524;-1.510;2022-07-10T01:09:24;16.95;;;7.70;;
36133;SDS011;40492;43.524;-1.510;2022-07-10T01:11:50;16.10;;;8.27;;
36133;SDS011;40492;43.524;-1.510;2022-07-10T01:14:17;18.95;;;8.52;;
36133;SDS011;40492;43.524;-1.510;2022-07-10T01:16:43;19.08;;;9.27;;
36133;SDS011;40492;43.524;-1.510;2022-07-10T01:19:09;12.93;;;7.88;;
36133;SDS011;40492;43.524;-1.510;2022-07-10T01:21:36;14.32;;;7.63;;
36133;SDS011;40492;43.524;-1.510;2022-07-10T01:24:09;14.35;;;7.93;;
36133;SDS011;40492;43.524;-1.510;2022-07-10T01:26:36;20.55;;;8.55;;
36133;SDS011;40492;43.524;-1.510;2022-07-10T01:29:07;12.95;;;8.13;;
36133;SDS011;40492;43.524;-1.510;2022-07-10T01:31:33;13.98;;;8.55;;
36133;SDS011;40492;43.524;-1.510;2022-07-10T01:34:00;13.82;;;8.55;;
36133;SDS011;40492;43.524;-1.510;2022-07-10T01:36:28;15.98;;;8.80;;
36133;SDS011;40492;43.524;-1.510;2022-07-10T01:38:57;15.60;;;8.23;;
36133;SDS011;40492;43.524;-1.510;2022-07-10T01:41:24;16.90;;;9.00;;
36133;SDS011;40492;43.524;-1.510;2022-07-10T01:43:51;19.42;;;9.07;;
36133;SDS011;40492;43.524;-1.510;2022-07-10T01:46:17;16.55;;;8.57;;
36133;SDS011;40492;43.524;-1.510;2022-07-10T01:48:44;14.32;;;8.90;;
36133;SDS011;40492;43.524;-1.510;2022-07-10T01:51:10;17.23;;;8.65;;
36133;SDS011;40492;43.524;-1.510;2022-07-10T01:53:37;14.98;;;8.45;;
36133;SDS011;40492;43.524;-1.510;2022-07-10T01:56:07;13.73;;;9.23;;
36133;SDS011;40492;43.524;-1.510;2022-07-10T01:58:34;17.52;;;9.20;;
36133;SDS011;40492;43.524;-1.510;2022-07-10T02:01:00;14.07;;;8.43;;
36133;SDS011;40492;43.524;-1.510;2022-07-10T02:03:27;14.90;;;9.20;;
36133;SDS011;40492;43.524;-1.510;2022-07-10T02:06:11;14.90;;;8.80;;
36133;SDS011;40492;43.524;-1.510;2022-07-10T02:08:37;12.88;;;8.45;;
36133;SDS011;40492;43.524;-1.510;2022-07-10T02:11:04;21.50;;;8.98;;
36133;SDS011;40492;43.524;-1.510;2022-07-10T02:13:30;17.42;;;9.23;;
36133;SDS011;40492;43.524;-1.510;2022-07-10T02:15:57;15.60;;;9.32;;
36133;SDS011;40492;43.524;-1.510;2022-07-10T02:18:23;12.45;;;7.90;;
36133;SDS011;40492;43.524;-1.510;2022-07-10T02:20:50;13.70;;;8.68;;
36133;SDS011;40492;43.524;-1.510;2022-07-10T02:23:16;12.93;;;7.97;;
36133;SDS011;40492;43.524;-1.510;2022-07-10T02:25:42;15.05;;;8.98;;
36133;SDS011;40492;43.524;-1.510;2022-07-10T02:28:08;22.40;;;8.65;;
36133;SDS011;40492;43.524;-1.510;2022-07-10T02:30:35;17.60;;;8.35;;
36133;SDS011;40492;43.524;-1.510;2022-07-10T02:33:01;12.75;;;8.05;;
36133;SDS011;40492;43.524;-1.510;2022-07-10T02:35:27;13.68;;;8.13;;
36133;SDS011;40492;43.524;-1.510;2022-07-10T02:37:54;15.05;;;8.68;;
36133;SDS011;40492;43.524;-1.510;2022-07-10T02:40:20;17.98;;;8.10;;
36133;SDS011;40492;43.524;-1.510;2022-07-10T02:42:46;11.48;;;8.07;;
36133;SDS011;40492;43.524;-1.510;2022-07-10T02:45:12;12.90;;;7.80;;
36133;SDS011;40492;43.524;-1.510;2022-07-10T02:47:38;15.05;;;7.72;;
36133;SDS011;40492;43.524;-1.510;2022-07-10T02:50:04;17.65;;;7.97;;
36133;SDS011;40492;43.524;-1.510;2022-07-10T02:52:30;12.07;;;7.68;;
36133;SDS011;40492;43.524;-1.510;2022-07-10T02:54:57;14.20;;;8.25;;
36133;SDS011;40492;43.524;-1.510;2022-07-10T02:57:23;11.27;;;7.15;;
36133;SDS011;40492;43.524;-1.510;2022-07-10T02:59:49;16.08;;;7.22;;
36133;SDS011;40492;43.524;-1.510;2022-07-10T03:02:16;18.65;;;8.02;;
36133;SDS011;40492;43.524;-1.510;2022-07-10T03:04:42;10.82;;;7.28;;
36133;SDS011;40492;43.524;-1.510;2022-07-10T03:07:08;12.30;;;7.55;;
36133;SDS011;40492;43.524;-1.510;2022-07-10T03:09:34;13.88;;;7.43;;
36133;SDS011;40492;43.524;-1.510;2022-07-10T03:12:00;10.63;;;7.30;;
36133;SDS011;40492;43.524;-1.510;2022-07-10T03:14:26;9.98;;;7.20;;
36133;SDS011;40492;43.524;-1.510;2022-07-10T03:16:52;13.63;;;7.70;;
36133;SDS011;40492;43.524;-1.510;2022-07-10T03:19:18;17.45;;;7.95;;
36133;SDS011;40492;43.524;-1.510;2022-07-10T03:21:44;16.38;;;8.23;;
36133;SDS011;40492;43.524;-1.510;2022-07-10T03:24:11;13.88;;;6.90;;
36133;SDS011;40492;43.524;-1.510;2022-07-10T03:26:37;16.95;;;7.35;;
36133;SDS011;40492;43.524;-1.510;2022-07-10T03:29:03;12.30;;;7.82;;
36133;SDS011;40492;43.524;-1.510;2022-07-10T03:31:29;10.43;;;7.05;;
36133;SDS011;40492;43.524;-1.510;2022-07-10T03:33:55;8.70;;;6.65;;
36133;SDS011;40492;43.524;-1.510;2022-07-10T03:36:21;15.30;;;7.10;;
36133;SDS011;40492;43.524;-1.510;2022-07-10T03:38:47;15.48;;;7.47;;
36133;SDS011;40492;43.524;-1.510;2022-07-10T03:41:13;16.63;;;7.35;;
36133;SDS011;40492;43.524;-1.510;2022-07-10T03:43:39;13.02;;;6.93;;
36133;SDS011;40492;43.524;-1.510;2022-07-10T03:46:05;12.23;;;6.93;;
36133;SDS011;40492;43.524;-1.510;2022-07-10T03:48:32;11.50;;;6.40;;
36133;SDS011;40492;43.524;-1.510;2022-07-10T03:50:58;18.65;;;7.50;;
36133;SDS011;40492;43.524;-1.510;2022-07-10T03:53:25;9.85;;;7.15;;
36133;SDS011;40492;43.524;-1.510;2022-07-10T03:55:51;13.65;;;7.38;;
36133;SDS011;40492;43.524;-1.510;2022-07-10T03:58:17;12.75;;;7.03;;
36133;SDS011;40492;43.524;-1.510;2022-07-10T04:00:43;11.70;;;8.05;;
36133;SDS011;40492;43.524;-1.510;2022-07-10T04:03:09;13.80;;;7.93;;
36133;SDS011;40492;43.524;-1.510;2022-07-10T04:05:35;14.52;;;8.35;;
36133;SDS011;40492;43.524;-1.510;2022-07-10T04:08:02;11.30;;;6.80;;
36133;SDS011;40492;43.524;-1.510;2022-07-10T04:10:29;11.75;;;6.85;;
36133;SDS011;40492;43.524;-1.510;2022-07-10T04:12:56;13.05;;;7.30;;
36133;SDS011;40492;43.524;-1.510;2022-07-10T04:15:23;11.40;;;7.53;;
36133;SDS011;40492;43.524;-1.510;2022-07-10T04:17:50;9.57;;;7.00;;
36133;SDS011;40492;43.524;-1.510;2022-07-10T04:20:16;15.25;;;7.60;;
36133;SDS011;40492;43.524;-1.510;2022-07-10T04:22:43;14.50;;;7.20;;
36133;SDS011;40492;43.524;-1.510;2022-07-10T04:25:09;14.23;;;7.22;;
36133;SDS011;40492;43.524;-1.510;2022-07-10T04:27:36;12.82;;;8.27;;
36133;SDS011;40492;43.524;-1.510;2022-07-10T04:30:03;14.77;;;7.80;;
36133;SDS011;40492;43.524;-1.510;2022-07-10T04:32:30;14.32;;;7.63;;
36133;SDS011;40492;43.524;-1.510;2022-07-10T04:34:56;16.20;;;8.35;;
36133;SDS011;40492;43.524;-1.510;2022-07-10T04:37:23;12.65;;;7.03;;
36133;SDS011;40492;43.524;-1.510;2022-07-10T04:39:49;12.45;;;7.32;;
36133;SDS011;40492;43.524;-1.510;2022-07-10T04:42:15;12.10;;;7.18;;
36133;SDS011;40492;43.524;-1.510;2022-07-10T04:44:41;14.70;;;7.45;;
36133;SDS011;40492;43.524;-1.510;2022-07-10T04:47:07;11.07;;;7.18;;
36133;SDS011;40492;43.524;-1.510;2022-07-10T04:49:33;13.25;;;7.60;;
36133;SDS011;40492;43.524;-1.510;2022-07-10T04:52:00;17.30;;;7.35;;
36133;SDS011;40492;43.524;-1.510;2022-07-10T04:54:26;15.65;;;7.55;;
36133;SDS011;40492;43.524;-1.510;2022-07-10T04:56:52;12.90;;;7.00;;
36133;SDS011;40492;43.524;-1.510;2022-07-10T04:59:18;11.23;;;6.85;;
36133;SDS011;40492;43.524;-1.510;2022-07-10T05:01:44;16.63;;;6.88;;
36133;SDS011;40492;43.524;-1.510;2022-07-10T05:04:10;18.13;;;6.70;;
36133;SDS011;40492;43.524;-1.510;2022-07-10T05:06:37;11.55;;;7.60;;
36133;SDS011;40492;43.524;-1.510;2022-07-10T05:09:03;12.77;;;7.15;;
36133;SDS011;40492;43.524;-1.510;2022-07-10T05:11:29;11.85;;;6.70;;
36133;SDS011;40492;43.524;-1.510;2022-07-10T05:13:56;13.25;;;7.10;;
36133;SDS011;40492;43.524;-1.510;2022-07-10T05:16:23;15.00;;;7.80;;
36133;SDS011;40492;43.524;-1.510;2022-07-10T05:18:49;12.27;;;7.68;;
36133;SDS011;40492;43.524;-1.510;2022-07-10T05:21:15;10.93;;;7.13;;
36133;SDS011;40492;43.524;-1.510;2022-07-10T05:23:41;15.55;;;6.85;;
36133;SDS011;40492;43.524;-1.510;2022-07-10T05:26:07;9.10;;;6.43;;
36133;SDS011;40492;43.524;-1.510;2022-07-10T05:28:33;12.88;;;6.97;;
36133;SDS011;40492;43.524;-1.510;2022-07-10T05:31:00;14.02;;;6.95;;
36133;SDS011;40492;43.524;-1.510;2022-07-10T05:33:26;15.45;;;7.18;;
36133;SDS011;40492;43.524;-1.510;2022-07-10T05:35:53;15.98;;;6.88;;
36133;SDS011;40492;43.524;-1.510;2022-07-10T05:38:19;13.82;;;7.03;;
36133;SDS011;40492;43.524;-1.510;2022-07-10T05:40:45;14.85;;;6.70;;
36133;SDS011;40492;43.524;-1.510;2022-07-10T05:43:11;15.38;;;7.07;;
36133;SDS011;40492;43.524;-1.510;2022-07-10T05:45:37;11.15;;;7.68;;
36133;SDS011;40492;43.524;-1.510;2022-07-10T05:48:04;14.75;;;6.57;;
36133;SDS011;40492;43.524;-1.510;2022-07-10T05:50:30;12.30;;;6.30;;
36133;SDS011;40492;43.524;-1.510;2022-07-10T05:52:56;11.32;;;7.05;;
36133;SDS011;40492;43.524;-1.510;2022-07-10T05:55:22;12.43;;;6.75;;
36133;SDS011;40492;43.524;-1.510;2022-07-10T05:57:49;12.77;;;6.55;;
36133;SDS011;40492;43.524;-1.510;2022-07-10T06:00:15;10.70;;;6.28;;
36133;SDS011;40492;43.524;-1.510;2022-07-10T06:02:41;11.40;;;5.85;;
36133;SDS011;40492;43.524;-1.510;2022-07-10T06:05:08;11.25;;;6.40;;
36133;SDS011;40492;43.524;-1.510;2022-07-10T06:07:34;11.90;;;6.05;;
36133;SDS011;40492;43.524;-1.510;2022-07-10T06:10:01;14.10;;;6.47;;
36133;SDS011;40492;43.524;-1.510;2022-07-10T06:12:28;11.27;;;6.13;;
36133;SDS011;40492;43.524;-1.510;2022-07-10T06:14:54;11.13;;;6.32;;
36133;SDS011;40492;43.524;-1.510;2022-07-10T06:17:20;9.15;;;5.53;;
36133;SDS011;40492;43.524;-1.510;2022-07-10T06:19:46;13.02;;;6.03;;
36133;SDS011;40492;43.524;-1.510;2022-07-10T06:22:13;11.95;;;5.88;;
36133;SDS011;40492;43.524;-1.510;2022-07-10T06:25:04;10.63;;;5.05;;
36133;SDS011;40492;43.524;-1.510;2022-07-10T06:27:31;10.75;;;5.93;;
36133;SDS011;40492;43.524;-1.510;2022-07-10T06:29:58;9.38;;;5.47;;
36133;SDS011;40492;43.524;-1.510;2022-07-10T06:32:24;10.93;;;5.60;;
36133;SDS011;40492;43.524;-1.510;2022-07-10T06:34:53;12.98;;;5.53;;
36133;SDS011;40492;43.524;-1.510;2022-07-10T06:37:20;12.88;;;5.72;;
36133;SDS011;40492;43.524;-1.510;2022-07-10T06:39:46;9.02;;;4.65;;
36133;SDS011;40492;43.524;-1.510;2022-07-10T06:42:13;7.30;;;5.35;;
36133;SDS011;40492;43.524;-1.510;2022-07-10T06:44:42;9.95;;;5.25;;
36133;SDS011;40492;43.524;-1.510;2022-07-10T06:47:09;13.30;;;6.00;;
36133;SDS011;40492;43.524;-1.510;2022-07-10T06:49:55;14.82;;;5.80;;
36133;SDS011;40492;43.524;-1.510;2022-07-10T06:52:22;10.93;;;5.35;;
36133;SDS011;40492;43.524;-1.510;2022-07-10T06:54:49;12.32;;;5.13;;
36133;SDS011;40492;43.524;-1.510;2022-07-10T06:57:15;19.45;;;5.30;;
36133;SDS011;40492;43.524;-1.510;2022-07-10T06:59:43;11.68;;;5.30;;
36133;SDS011;40492;43.524;-1.510;2022-07-10T07:02:09;10.82;;;4.57;;
36133;SDS011;40492;43.524;-1.510;2022-07-10T07:04:35;13.48;;;5.05;;
36133;SDS011;40492;43.524;-1.510;2022-07-10T07:07:02;16.10;;;5.65;;
36133;SDS011;40492;43.524;-1.510;2022-07-10T07:09:28;14.82;;;5.22;;
36133;SDS011;40492;43.524;-1.510;2022-07-10T07:11:54;16.23;;;5.28;;
36133;SDS011;40492;43.524;-1.510;2022-07-10T07:14:20;17.02;;;5.10;;
36133;SDS011;40492;43.524;-1.510;2022-07-10T07:16:46;11.82;;;5.35;;
36133;SDS011;40492;43.524;-1.510;2022-07-10T07:19:23;16.25;;;5.40;;
36133;SDS011;40492;43.524;-1.510;2022-07-10T07:22:10;11.25;;;5.25;;
36133;SDS011;40492;43.524;-1.510;2022-07-10T07:24:58;28.67;;;6.13;;
36133;SDS011;40492;43.524;-1.510;2022-07-10T07:27:25;15.38;;;5.35;;
36133;SDS011;40492;43.524;-1.510;2022-07-10T07:29:51;12.73;;;4.80;;
36133;SDS011;40492;43.524;-1.510;2022-07-10T07:32:17;12.00;;;4.75;;
36133;SDS011;40492;43.524;-1.510;2022-07-10T07:34:43;9.23;;;4.47;;
36133;SDS011;40492;43.524;-1.510;2022-07-10T07:37:09;13.10;;;4.65;;
36133;SDS011;40492;43.524;-1.510;2022-07-10T07:39:35;10.85;;;4.50;;
36133;SDS011;40492;43.524;-1.510;2022-07-10T07:42:03;9.82;;;4.90;;
36133;SDS011;40492;43.524;-1.510;2022-07-10T07:44:29;13.15;;;5.05;;
36133;SDS011;40492;43.524;-1.510;2022-07-10T07:46:55;12.25;;;4.95;;
36133;SDS011;40492;43.524;-1.510;2022-07-10T07:49:21;11.98;;;4.80;;
36133;SDS011;40492;43.524;-1.510;2022-07-10T07:51:48;15.25;;;5.38;;
36133;SDS011;40492;43.524;-1.510;2022-07-10T07:54:14;8.90;;;4.93;;
36133;SDS011;40492;43.524;-1.510;2022-07-10T07:56:41;12.20;;;4.90;;
36133;SDS011;40492;43.524;-1.510;2022-07-10T07:59:07;9.23;;;5.22;;
36133;SDS011;40492;43.524;-1.510;2022-07-10T08:01:33;10.50;;;4.93;;
36133;SDS011;40492;43.524;-1.510;2022-07-10T08:03:59;15.52;;;6.25;;
36133;SDS011;40492;43.524;-1.510;2022-07-10T08:06:25;19.27;;;5.68;;
36133;SDS011;40492;43.524;-1.510;2022-07-10T08:08:51;20.95;;;6.68;;
36133;SDS011;40492;43.524;-1.510;2022-07-10T08:11:17;15.82;;;6.00;;
36133;SDS011;40492;43.524;-1.510;2022-07-10T08:13:43;18.35;;;6.18;;
36133;SDS011;40492;43.524;-1.510;2022-07-10T08:16:10;13.82;;;5.28;;
36133;SDS011;40492;43.524;-1.510;2022-07-10T08:18:36;11.98;;;5.65;;
36133;SDS011;40492;43.524;-1.510;2022-07-10T08:21:02;16.23;;;6.07;;
36133;SDS011;40492;43.524;-1.510;2022-07-10T08:23:28;16.63;;;6.15;;
36133;SDS011;40492;43.524;-1.510;2022-07-10T08:25:54;11.05;;;5.97;;
36133;SDS011;40492;43.524;-1.510;2022-07-10T08:28:23;17.77;;;6.13;;
36133;SDS011;40492;43.524;-1.510;2022-07-10T08:30:49;14.15;;;6.07;;
36133;SDS011;40492;43.524;-1.510;2022-07-10T08:33:15;11.88;;;5.15;;
36133;SDS011;40492;43.524;-1.510;2022-07-10T08:35:41;14.35;;;5.63;;
36133;SDS011;40492;43.524;-1.510;2022-07-10T08:38:07;14.88;;;6.05;;
36133;SDS011;40492;43.524;-1.510;2022-07-10T08:40:34;10.20;;;5.40;;
36133;SDS011;40492;43.524;-1.510;2022-07-10T08:43:04;12.93;;;5.80;;
36133;SDS011;40492;43.524;-1.510;2022-07-10T08:45:32;18.08;;;6.53;;
36133;SDS011;40492;43.524;-1.510;2022-07-10T08:48:02;16.70;;;5.55;;
36133;SDS011;40492;43.524;-1.510;2022-07-10T08:50:32;15.02;;;5.95;;
36133;SDS011;40492;43.524;-1.510;2022-07-10T08:55:37;10.75;;;5.35;;
36133;SDS011;40492;43.524;-1.510;2022-07-10T08:58:04;13.50;;;6.22;;
36133;SDS011;40492;43.524;-1.510;2022-07-10T09:00:33;12.82;;;5.85;;
36133;SDS011;40492;43.524;-1.510;2022-07-10T09:02:59;15.55;;;5.82;;
36133;SDS011;40492;43.524;-1.510;2022-07-10T09:05:26;10.40;;;5.13;;
36133;SDS011;40492;43.524;-1.510;2022-07-10T09:07:53;12.80;;;5.80;;
36133;SDS011;40492;43.524;-1.510;2022-07-10T09:10:19;11.32;;;5.30;;
36133;SDS011;40492;43.524;-1.510;2022-07-10T09:12:57;17.95;;;6.32;;
36133;SDS011;40492;43.524;-1.510;2022-07-10T09:15:27;14.40;;;6.18;;
36133;SDS011;40492;43.524;-1.510;2022-07-10T09:18:03;12.38;;;5.55;;
36133;SDS011;40492;43.524;-1.510;2022-07-10T09:23:22;15.75;;;5.57;;
36133;SDS011;40492;43.524;-1.510;2022-07-10T09:25:48;12.45;;;5.05;;
36133;SDS011;40492;43.524;-1.510;2022-07-10T09:28:16;20.50;;;5.55;;
36133;SDS011;40492;43.524;-1.510;2022-07-10T09:30:44;14.52;;;5.28;;
36133;SDS011;40492;43.524;-1.510;2022-07-10T09:43:51;13.90;;;4.63;;
36133;SDS011;40492;43.524;-1.510;2022-07-10T09:46:27;11.00;;;4.45;;
36133;SDS011;40492;43.524;-1.510;2022-07-10T09:51:32;8.60;;;4.22;;
36133;SDS011;40492;43.524;-1.510;2022-07-10T09:54:04;12.50;;;5.27;;
36133;SDS011;40492;43.524;-1.510;2022-07-10T09:56:53;11.27;;;4.90;;
36133;SDS011;40492;43.524;-1.510;2022-07-10T09:59:20;16.63;;;6.25;;
36133;SDS011;40492;43.524;-1.510;2022-07-10T10:01:47;11.43;;;4.70;;
36133;SDS011;40492;43.524;-1.510;2022-07-10T10:04:18;13.13;;;4.38;;
36133;SDS011;40492;43.524;-1.510;2022-07-10T10:06:46;14.35;;;4.70;;
36133;SDS011;40492;43.524;-1.510;2022-07-10T10:09:24;11.20;;;4.82;;
36133;SDS011;40492;43.524;-1.510;2022-07-10T10:11:54;13.57;;;5.32;;
36133;SDS011;40492;43.524;-1.510;2022-07-10T10:14:24;8.32;;;4.18;;
36133;SDS011;40492;43.524;-1.510;2022-07-10T10:16:52;7.18;;;4.05;;
36133;SDS011;40492;43.524;-1.510;2022-07-10T10:19:21;10.40;;;4.32;;
36133;SDS011;40492;43.524;-1.510;2022-07-10T10:22:07;8.80;;;4.07;;
36133;SDS011;40492;43.524;-1.510;2022-07-10T10:24:34;11.90;;;3.90;;
36133;SDS011;40492;43.524;-1.510;2022-07-10T10:27:02;9.60;;;3.33;;
36133;SDS011;40492;43.524;-1.510;2022-07-10T10:29:31;12.70;;;4.03;;
36133;SDS011;40492;43.524;-1.510;2022-07-10T10:32:00;10.93;;;3.75;;
36133;SDS011;40492;43.524;-1.510;2022-07-10T10:34:39;10.63;;;3.83;;
36133;SDS011;40492;43.524;-1.510;2022-07-10T10:40:10;12.75;;;3.63;;
36133;SDS011;40492;43.524;-1.510;2022-07-10T10:42:55;8.90;;;3.65;;
36133;SDS011;40492;43.524;-1.510;2022-07-10T10:45:25;6.72;;;3.20;;
36133;SDS011;40492;43.524;-1.510;2022-07-10T10:47:59;7.00;;;3.75;;
36133;SDS011;40492;43.524;-1.510;2022-07-10T10:53:03;9.25;;;3.53;;
36133;SDS011;40492;43.524;-1.510;2022-07-10T10:55:30;10.02;;;3.25;;
36133;SDS011;40492;43.524;-1.510;2022-07-10T10:58:14;9.82;;;3.45;;
36133;SDS011;40492;43.524;-1.510;2022-07-10T11:00:42;8.57;;;3.63;;
36133;SDS011;40492;43.524;-1.510;2022-07-10T11:03:15;7.65;;;3.00;;
36133;SDS011;40492;43.524;-1.510;2022-07-10T11:05:45;8.00;;;3.60;;
36133;SDS011;40492;43.524;-1.510;2022-07-10T11:08:13;6.38;;;3.40;;
36133;SDS011;40492;43.524;-1.510;2022-07-10T11:10:43;7.35;;;3.60;;
36133;SDS011;40492;43.524;-1.510;2022-07-10T11:13:13;8.02;;;3.53;;
36133;SDS011;40492;43.524;-1.510;2022-07-10T11:15:43;6.82;;;3.35;;
36133;SDS011;40492;43.524;-1.510;2022-07-10T11:18:17;11.32;;;3.95;;
36133;SDS011;40492;43.524;-1.510;2022-07-10T11:20:47;7.40;;;3.22;;
36133;SDS011;40492;43.524;-1.510;2022-07-10T11:26:21;6.40;;;3.65;;
36133;SDS011;40492;43.524;-1.510;2022-07-10T11:29:06;10.52;;;3.95;;
36133;SDS011;40492;43.524;-1.510;2022-07-10T11:31:32;8.60;;;3.58;;
36133;SDS011;40492;43.524;-1.510;2022-07-10T11:34:10;6.60;;;2.92;;
36133;SDS011;40492;43.524;-1.510;2022-07-10T11:36:38;6.72;;;3.10;;
36133;SDS011;40492;43.524;-1.510;2022-07-10T11:39:05;8.18;;;3.72;;
36133;SDS011;40492;43.524;-1.510;2022-07-10T11:41:33;16.35;;;3.50;;
36133;SDS011;40492;43.524;-1.510;2022-07-10T11:44:03;11.02;;;3.50;;
36133;SDS011;40492;43.524;-1.510;2022-07-10T11:46:30;12.27;;;3.53;;
36133;SDS011;40492;43.524;-1.510;2022-07-10T11:48:57;6.88;;;3.30;;
36133;SDS011;40492;43.524;-1.510;2022-07-10T11:51:26;12.32;;;3.42;;
36133;SDS011;40492;43.524;-1.510;2022-07-10T11:53:54;9.35;;;3.58;;
36133;SDS011;40492;43.524;-1.510;2022-07-10T11:56:23;15.98;;;3.70;;
36133;SDS011;40492;43.524;-1.510;2022-07-10T11:59:01;15.82;;;4.20;;
36133;SDS011;40492;43.524;-1.510;2022-07-10T12:01:29;9.13;;;3.38;;
36133;SDS011;40492;43.524;-1.510;2022-07-10T12:06:24;8.85;;;3.75;;
36133;SDS011;40492;43.524;-1.510;2022-07-10T12:08:51;7.18;;;3.40;;
36133;SDS011;40492;43.524;-1.510;2022-07-10T12:11:19;8.07;;;3.40;;
36133;SDS011;40492;43.524;-1.510;2022-07-10T12:13:46;9.43;;;3.85;;
36133;SDS011;40492;43.524;-1.510;2022-07-10T12:16:14;9.55;;;3.38;;
36133;SDS011;40492;43.524;-1.510;2022-07-10T12:18:41;4.95;;;2.85;;
36133;SDS011;40492;43.524;-1.510;2022-07-10T12:21:11;6.65;;;3.47;;
36133;SDS011;40492;43.524;-1.510;2022-07-10T12:23:38;6.60;;;3.15;;
36133;SDS011;40492;43.524;-1.510;2022-07-10T12:26:09;9.60;;;3.55;;
36133;SDS011;40492;43.524;-1.510;2022-07-10T12:28:52;7.88;;;2.72;;
36133;SDS011;40492;43.524;-1.510;2022-07-10T12:31:26;6.93;;;3.20;;
36133;SDS011;40492;43.524;-1.510;2022-07-10T12:34:00;7.32;;;3.47;;
36133;SDS011;40492;43.524;-1.510;2022-07-10T12:36:47;5.95;;;3.28;;
36133;SDS011;40492;43.524;-1.510;2022-07-10T12:39:18;8.35;;;3.70;;
36133;SDS011;40492;43.524;-1.510;2022-07-10T12:41:57;9.25;;;4.40;;
36133;SDS011;40492;43.524;-1.510;2022-07-10T12:44:31;7.68;;;3.90;;
36133;SDS011;40492;43.524;-1.510;2022-07-10T12:47:02;8.70;;;4.10;;
36133;SDS011;40492;43.524;-1.510;2022-07-10T12:49:53;6.72;;;3.97;;
36133;SDS011;40492;43.524;-1.510;2022-07-10T12:52:27;5.47;;;3.83;;
36133;SDS011;40492;43.524;-1.510;2022-07-10T12:57:44;7.03;;;4.13;;
36133;SDS011;40492;43.524;-1.510;2022-07-10T13:00:22;8.13;;;4.32;;
36133;SDS011;40492;43.524;-1.510;2022-07-10T13:02:56;12.95;;;4.55;;
36133;SDS011;40492;43.524;-1.510;2022-07-10T13:05:25;6.70;;;4.43;;
36133;SDS011;40492;43.524;-1.510;2022-07-10T13:08:15;7.85;;;4.53;;
36133;SDS011;40492;43.524;-1.510;2022-07-10T13:10:48;7.22;;;4.15;;
36133;SDS011;40492;43.524;-1.510;2022-07-10T13:13:16;10.25;;;4.65;;
36133;SDS011;40492;43.524;-1.510;2022-07-10T13:15:43;8.20;;;4.93;;
36133;SDS011;40492;43.524;-1.510;2022-07-10T13:18:16;6.75;;;4.63;;
36133;SDS011;40492;43.524;-1.510;2022-07-10T13:20:46;8.65;;;4.78;;
36133;SDS011;40492;43.524;-1.510;2022-07-10T13:23:14;9.60;;;5.00;;
36133;SDS011;40492;43.524;-1.510;2022-07-10T13:25:42;8.75;;;4.90;;
36133;SDS011;40492;43.524;-1.510;2022-07-10T13:28:09;8.57;;;5.13;;
36133;SDS011;40492;43.524;-1.510;2022-07-10T13:30:36;10.57;;;5.28;;
36133;SDS011;40492;43.524;-1.510;2022-07-10T13:33:03;11.65;;;4.65;;
36133;SDS011;40492;43.524;-1.510;2022-07-10T13:35:30;10.02;;;4.90;;
36133;SDS011;40492;43.524;-1.510;2022-07-10T13:37:58;12.80;;;5.05;;
36133;SDS011;40492;43.524;-1.510;2022-07-10T13:40:30;10.25;;;4.65;;
36133;SDS011;40492;43.524;-1.510;2022-07-10T13:42:57;6.72;;;4.60;;
36133;SDS011;40492;43.524;-1.510;2022-07-10T13:45:24;8.40;;;4.38;;
36133;SDS011;40492;43.524;-1.510;2022-07-10T13:47:52;11.02;;;5.38;;
36133;SDS011;40492;43.524;-1.510;2022-07-10T13:50:19;8.60;;;4.82;;
36133;SDS011;40492;43.524;-1.510;2022-07-10T13:52:46;8.55;;;4.28;;
36133;SDS011;40492;43.524;-1.510;2022-07-10T13:55:12;9.18;;;4.93;;
36133;SDS011;40492;43.524;-1.510;2022-07-10T13:57:38;11.98;;;4.10;;
36133;SDS011;40492;43.524;-1.510;2022-07-10T14:00:05;12.27;;;4.28;;
36133;SDS011;40492;43.524;-1.510;2022-07-10T14:02:32;9.48;;;5.22;;
36133;SDS011;40492;43.524;-1.510;2022-07-10T14:04:58;8.75;;;4.70;;
36133;SDS011;40492;43.524;-1.510;2022-07-10T14:07:24;13.13;;;4.32;;
36133;SDS011;40492;43.524;-1.510;2022-07-10T14:09:50;9.13;;;4.88;;
36133;SDS011;40492;43.524;-1.510;2022-07-10T14:12:17;8.05;;;4.60;;
36133;SDS011;40492;43.524;-1.510;2022-07-10T14:14:43;14.43;;;5.35;;
36133;SDS011;40492;43.524;-1.510;2022-07-10T14:17:09;10.20;;;5.38;;
36133;SDS011;40492;43.524;-1.510;2022-07-10T14:19:35;12.88;;;7.55;;
36133;SDS011;40492;43.524;-1.510;2022-07-10T14:22:01;17.98;;;8.07;;
36133;SDS011;40492;43.524;-1.510;2022-07-10T14:24:27;12.60;;;7.53;;
36133;SDS011;40492;43.524;-1.510;2022-07-10T14:26:53;12.35;;;7.68;;
36133;SDS011;40492;43.524;-1.510;2022-07-10T14:29:19;17.80;;;9.13;;
36133;SDS011;40492;43.524;-1.510;2022-07-10T14:31:45;13.80;;;9.30;;
36133;SDS011;40492;43.524;-1.510;2022-07-10T14:34:17;17.90;;;9.93;;
36133;SDS011;40492;43.524;-1.510;2022-07-10T14:36:44;15.18;;;9.73;;
36133;SDS011;40492;43.524;-1.510;2022-07-10T14:39:10;18.40;;;10.98;;
36133;SDS011;40492;43.524;-1.510;2022-07-10T14:41:39;18.15;;;11.63;;
36133;SDS011;40492;43.524;-1.510;2022-07-10T14:44:05;19.80;;;11.88;;
36133;SDS011;40492;43.524;-1.510;2022-07-10T14:46:31;17.70;;;11.45;;
36133;SDS011;40492;43.524;-1.510;2022-07-10T14:48:58;14.70;;;10.75;;
36133;SDS011;40492;43.524;-1.510;2022-07-10T14:51:25;17.45;;;9.40;;
36133;SDS011;40492;43.524;-1.510;2022-07-10T14:53:51;19.92;;;9.73;;
36133;SDS011;40492;43.524;-1.510;2022-07-10T14:56:17;13.05;;;9.57;;
36133;SDS011;40492;43.524;-1.510;2022-07-10T14:58:44;13.13;;;7.40;;
36133;SDS011;40492;43.524;-1.510;2022-07-10T15:01:11;10.07;;;5.97;;